createdAt,value
2018-08-20T00:00:07.475Z,0
2018-08-20T00:00:48.076Z,0
2018-08-20T00:01:28.653Z,0
2018-08-20T00:02:09.214Z,0
2018-08-20T00:02:49.777Z,0
2018-08-20T00:03:30.345Z,0
2018-08-20T00:04:10.907Z,0
2018-08-20T00:04:51.489Z,0
2018-08-20T00:05:32.029Z,0
2018-08-20T00:06:12.615Z,0
2018-08-20T00:06:53.194Z,0
2018-08-20T00:07:33.757Z,0
2018-08-20T00:08:14.327Z,0
2018-08-20T00:08:54.957Z,0
2018-08-20T00:09:35.559Z,0
2018-08-20T00:10:16.138Z,0
2018-08-20T00:10:56.711Z,0
2018-08-20T00:11:37.276Z,0
2018-08-20T00:12:17.848Z,0
2018-08-20T00:12:58.403Z,0
2018-08-20T00:13:38.988Z,0
2018-08-20T00:14:19.544Z,0
2018-08-20T00:15:00.116Z,0
2018-08-20T00:15:40.665Z,0
2018-08-20T00:16:21.236Z,0
2018-08-20T00:17:01.842Z,0
2018-08-20T00:17:42.470Z,0
2018-08-20T00:18:23.037Z,0
2018-08-20T00:19:03.596Z,0
2018-08-20T00:19:44.165Z,0
2018-08-20T00:20:24.724Z,0
2018-08-20T00:21:05.280Z,0
2018-08-20T00:21:46.057Z,0
2018-08-20T00:22:26.694Z,0
2018-08-20T00:23:07.333Z,0
2018-08-20T00:23:47.856Z,0
2018-08-20T00:24:28.449Z,0
2018-08-20T00:25:09.023Z,0
2018-08-20T00:25:49.584Z,0
2018-08-20T00:26:30.148Z,0
2018-08-20T00:27:10.736Z,0
2018-08-20T00:27:51.299Z,0
2018-08-20T00:28:31.858Z,0
2018-08-20T00:29:12.420Z,0
2018-08-20T00:29:52.981Z,0
2018-08-20T00:30:33.563Z,0
2018-08-20T00:31:14.134Z,0
2018-08-20T00:31:54.766Z,0
2018-08-20T00:32:35.327Z,0
2018-08-20T00:33:15.886Z,0
2018-08-20T00:33:56.448Z,0
2018-08-20T00:34:37.018Z,0
2018-08-20T00:35:17.603Z,0
2018-08-20T00:35:58.173Z,0
2018-08-20T00:36:38.741Z,0
2018-08-20T00:37:19.309Z,0
2018-08-20T00:37:59.871Z,0
2018-08-20T00:38:40.425Z,0
2018-08-20T00:39:20.981Z,0
2018-08-20T00:40:01.596Z,0
2018-08-20T00:40:42.159Z,0
2018-08-20T00:41:22.714Z,0
2018-08-20T00:42:03.284Z,0
2018-08-20T00:42:43.838Z,0
2018-08-20T00:43:24.423Z,0
2018-08-20T00:44:04.989Z,0
2018-08-20T00:44:45.586Z,0
2018-08-20T00:45:26.138Z,0
2018-08-20T00:46:06.731Z,0
2018-08-20T00:46:47.297Z,0
2018-08-20T00:47:27.876Z,0
2018-08-20T00:48:08.434Z,0
2018-08-20T00:48:49.007Z,0
2018-08-20T00:49:29.561Z,0
2018-08-20T00:50:10.139Z,0
2018-08-20T00:50:50.702Z,0
2018-08-20T00:51:31.269Z,0
2018-08-20T00:52:11.849Z,0
2018-08-20T00:52:52.408Z,0
2018-08-20T00:53:32.981Z,0
2018-08-20T00:54:13.552Z,0
2018-08-20T00:54:54.100Z,0
2018-08-20T00:55:34.690Z,0
2018-08-20T00:56:15.262Z,0
2018-08-20T00:56:55.827Z,0
2018-08-20T00:57:36.397Z,0
2018-08-20T00:58:16.969Z,0
2018-08-20T00:58:57.532Z,0
2018-08-20T00:59:38.106Z,0
2018-08-20T01:00:18.707Z,0
2018-08-20T01:00:59.331Z,0
2018-08-20T01:01:39.865Z,0
2018-08-20T01:02:20.478Z,0
2018-08-20T01:03:01.052Z,0
2018-08-20T01:03:41.627Z,0
2018-08-20T01:04:22.196Z,0
2018-08-20T01:05:02.754Z,0
2018-08-20T01:05:43.320Z,0
2018-08-20T01:06:23.893Z,0
2018-08-20T01:07:04.474Z,0
2018-08-20T01:07:45.035Z,0
2018-08-20T01:08:25.607Z,0
2018-08-20T01:09:06.186Z,0
2018-08-20T01:09:46.758Z,0
2018-08-20T01:10:27.325Z,0
2018-08-20T01:11:07.886Z,0
2018-08-20T01:11:48.470Z,0
2018-08-20T01:12:29.038Z,0
2018-08-20T01:13:09.591Z,0
2018-08-20T01:13:50.153Z,0
2018-08-20T01:14:30.715Z,0
2018-08-20T01:15:11.283Z,0
2018-08-20T01:15:51.848Z,0
2018-08-20T01:16:32.402Z,0
2018-08-20T01:17:12.996Z,0
2018-08-20T01:17:53.609Z,0
2018-08-20T01:18:34.173Z,0
2018-08-20T01:19:14.733Z,0
2018-08-20T01:19:55.301Z,0
2018-08-20T01:20:35.863Z,0
2018-08-20T01:21:16.478Z,0
2018-08-20T01:21:57.032Z,0
2018-08-20T01:22:37.609Z,0
2018-08-20T01:23:18.175Z,0
2018-08-20T01:23:58.756Z,0
2018-08-20T01:24:39.364Z,0
2018-08-20T01:25:19.931Z,0
2018-08-20T01:26:00.504Z,0
2018-08-20T01:26:41.062Z,0
2018-08-20T01:27:21.620Z,0
2018-08-20T01:28:02.205Z,0
2018-08-20T01:28:42.767Z,0
2018-08-20T01:29:23.414Z,0
2018-08-20T01:30:04.006Z,0
2018-08-20T01:30:44.579Z,0
2018-08-20T01:31:25.141Z,0
2018-08-20T01:32:05.723Z,0
2018-08-20T01:32:46.317Z,0
2018-08-20T01:33:26.882Z,0
2018-08-20T01:34:07.447Z,0
2018-08-20T01:34:48.042Z,0
2018-08-20T01:35:28.609Z,0
2018-08-20T01:36:09.171Z,0
2018-08-20T01:36:49.738Z,0
2018-08-20T01:37:30.314Z,0
2018-08-20T01:38:10.882Z,0
2018-08-20T01:38:51.436Z,0
2018-08-20T01:39:32.003Z,0
2018-08-20T01:40:12.564Z,0
2018-08-20T01:40:53.125Z,0
2018-08-20T01:41:33.677Z,0
2018-08-20T01:42:14.259Z,0
2018-08-20T01:42:54.856Z,0
2018-08-20T01:43:35.418Z,0
2018-08-20T01:44:15.981Z,0
2018-08-20T01:44:56.545Z,0
2018-08-20T01:45:37.125Z,0
2018-08-20T01:46:17.713Z,0
2018-08-20T01:46:58.276Z,0
2018-08-20T01:47:38.838Z,0
2018-08-20T01:48:19.391Z,0
2018-08-20T01:48:59.971Z,0
2018-08-20T01:49:40.524Z,0
2018-08-20T01:50:21.089Z,0
2018-08-20T01:51:01.683Z,0
2018-08-20T01:51:42.240Z,0
2018-08-20T01:52:22.806Z,0
2018-08-20T01:53:03.382Z,0
2018-08-20T01:53:43.955Z,0
2018-08-20T01:54:24.592Z,0
2018-08-20T01:55:05.088Z,0
2018-08-20T01:55:45.647Z,0
2018-08-20T01:56:26.204Z,0
2018-08-20T01:57:06.780Z,0
2018-08-20T01:57:47.351Z,0
2018-08-20T01:58:27.913Z,0
2018-08-20T01:59:08.478Z,0
2018-08-20T01:59:49.033Z,0
2018-08-20T02:00:29.596Z,0
2018-08-20T02:01:10.195Z,0
2018-08-20T02:01:50.769Z,0
2018-08-20T02:02:31.337Z,0
2018-08-20T02:03:11.892Z,0
2018-08-20T02:03:52.459Z,0
2018-08-20T02:04:33.017Z,0
2018-08-20T02:05:13.598Z,0
2018-08-20T02:05:54.179Z,0
2018-08-20T02:06:34.743Z,0
2018-08-20T02:07:15.317Z,0
2018-08-20T02:07:55.892Z,0
2018-08-20T02:08:36.459Z,0
2018-08-20T02:09:17.030Z,0
2018-08-20T02:09:57.601Z,0
2018-08-20T02:10:38.171Z,0
2018-08-20T02:11:18.729Z,0
2018-08-20T02:11:59.293Z,0
2018-08-20T02:12:39.845Z,0
2018-08-20T02:13:20.411Z,0
2018-08-20T02:14:00.979Z,0
2018-08-20T02:14:41.541Z,0
2018-08-20T02:15:22.104Z,0
2018-08-20T02:16:02.670Z,0
2018-08-20T02:16:43.231Z,0
2018-08-20T02:17:23.812Z,0
2018-08-20T02:18:04.371Z,0
2018-08-20T02:18:44.956Z,0
2018-08-20T02:19:25.520Z,0
2018-08-20T02:20:06.091Z,0
2018-08-20T02:20:46.649Z,0
2018-08-20T02:21:27.203Z,0
2018-08-20T02:22:07.782Z,0
2018-08-20T02:22:48.354Z,0
2018-08-20T02:23:28.929Z,0
2018-08-20T02:24:09.486Z,0
2018-08-20T02:24:50.059Z,0
2018-08-20T02:25:30.627Z,0
2018-08-20T02:26:11.193Z,0
2018-08-20T02:26:51.743Z,0
2018-08-20T02:27:32.307Z,0
2018-08-20T02:28:12.884Z,0
2018-08-20T02:28:53.427Z,0
2018-08-20T02:29:33.994Z,0
2018-08-20T02:30:14.562Z,0
2018-08-20T02:30:55.113Z,0
2018-08-20T02:31:35.669Z,0
2018-08-20T02:32:16.228Z,0
2018-08-20T02:32:56.840Z,0
2018-08-20T02:33:37.355Z,0
2018-08-20T02:34:17.921Z,0
2018-08-20T02:34:58.487Z,0
2018-08-20T02:35:39.055Z,0
2018-08-20T02:36:19.619Z,0
2018-08-20T02:37:00.190Z,0
2018-08-20T02:37:40.766Z,0
2018-08-20T02:38:21.363Z,0
2018-08-20T02:39:01.921Z,0
2018-08-20T02:39:42.489Z,0
2018-08-20T02:40:23.053Z,0
2018-08-20T02:41:03.617Z,0
2018-08-20T02:41:44.174Z,0
2018-08-20T02:42:24.768Z,0
2018-08-20T02:43:05.350Z,0
2018-08-20T02:43:45.906Z,0
2018-08-20T02:44:26.465Z,0
2018-08-20T02:45:07.029Z,0
2018-08-20T02:45:47.582Z,0
2018-08-20T02:46:28.145Z,0
2018-08-20T02:47:08.705Z,0
2018-08-20T02:47:49.271Z,0
2018-08-20T02:48:29.825Z,0
2018-08-20T02:49:10.466Z,0
2018-08-20T02:49:51.060Z,0
2018-08-20T02:50:31.616Z,0
2018-08-20T02:51:12.180Z,0
2018-08-20T02:51:52.744Z,0
2018-08-20T02:52:33.319Z,0
2018-08-20T02:53:13.889Z,0
2018-08-20T02:53:54.455Z,0
2018-08-20T02:54:35.020Z,0
2018-08-20T02:55:15.605Z,0
2018-08-20T02:55:56.168Z,0
2018-08-20T02:56:36.746Z,0
2018-08-20T02:57:17.301Z,0
2018-08-20T02:57:57.871Z,0
2018-08-20T02:58:38.426Z,0
2018-08-20T02:59:19.013Z,0
2018-08-20T02:59:59.590Z,0
2018-08-20T03:00:40.158Z,0
2018-08-20T03:01:20.733Z,0
2018-08-20T03:02:01.311Z,0
2018-08-20T03:02:41.921Z,0
2018-08-20T03:03:22.473Z,0
2018-08-20T03:04:03.054Z,0
2018-08-20T03:04:43.631Z,0
2018-08-20T03:05:24.210Z,0
2018-08-20T03:06:04.755Z,0
2018-08-20T03:06:45.329Z,0
2018-08-20T03:07:25.882Z,0
2018-08-20T03:08:06.460Z,0
2018-08-20T03:08:47.029Z,0
2018-08-20T03:09:27.616Z,0
2018-08-20T03:10:08.212Z,0
2018-08-20T03:10:48.782Z,0
2018-08-20T03:11:29.353Z,0
2018-08-20T03:12:09.919Z,0
2018-08-20T03:12:50.485Z,0
2018-08-20T03:13:31.064Z,0
2018-08-20T03:14:11.628Z,0
2018-08-20T03:14:52.206Z,0
2018-08-20T03:15:32.766Z,0
2018-08-20T03:16:13.391Z,0
2018-08-20T03:16:53.914Z,0
2018-08-20T03:17:34.571Z,0
2018-08-20T03:18:15.052Z,0
2018-08-20T03:18:55.607Z,0
2018-08-20T03:19:36.175Z,0
2018-08-20T03:20:16.738Z,0
2018-08-20T03:20:57.318Z,0
2018-08-20T03:21:37.883Z,0
2018-08-20T03:22:18.443Z,0
2018-08-20T03:22:59.016Z,0
2018-08-20T03:23:39.573Z,0
2018-08-20T03:24:20.136Z,0
2018-08-20T03:25:00.696Z,4
2018-08-20T03:25:41.257Z,4
2018-08-20T03:26:21.832Z,4
2018-08-20T03:27:02.414Z,4
2018-08-20T03:27:42.995Z,0
2018-08-20T03:28:23.563Z,4
2018-08-20T03:29:04.136Z,4
2018-08-20T03:29:44.699Z,4
2018-08-20T03:30:25.255Z,4
2018-08-20T03:31:05.823Z,4
2018-08-20T03:31:46.371Z,8
2018-08-20T03:32:26.942Z,4
2018-08-20T03:33:07.511Z,8
2018-08-20T03:33:48.074Z,8
2018-08-20T03:34:28.632Z,8
2018-08-20T03:35:09.210Z,8
2018-08-20T03:35:49.778Z,8
2018-08-20T03:36:30.336Z,12
2018-08-20T03:37:10.893Z,12
2018-08-20T03:37:51.463Z,12
2018-08-20T03:38:32.041Z,12
2018-08-20T03:39:12.599Z,20
2018-08-20T03:39:53.167Z,20
2018-08-20T03:40:33.751Z,20
2018-08-20T03:41:14.284Z,24
2018-08-20T03:41:54.850Z,28
2018-08-20T03:42:35.461Z,24
2018-08-20T03:43:16.039Z,28
2018-08-20T03:43:56.607Z,32
2018-08-20T03:44:37.163Z,32
2018-08-20T03:45:17.756Z,40
2018-08-20T03:45:58.316Z,40
2018-08-20T03:46:38.929Z,44
2018-08-20T03:47:19.527Z,48
2018-08-20T03:48:00.091Z,52
2018-08-20T03:48:40.655Z,52
2018-08-20T03:49:21.222Z,56
2018-08-20T03:50:01.855Z,64
2018-08-20T03:50:42.424Z,68
2018-08-20T03:51:23.049Z,76
2018-08-20T03:52:03.586Z,76
2018-08-20T03:52:44.194Z,84
2018-08-20T03:53:24.764Z,88
2018-08-20T03:54:05.350Z,96
2018-08-20T03:54:45.911Z,104
2018-08-20T03:55:26.477Z,104
2018-08-20T03:56:07.031Z,112
2018-08-20T03:56:47.622Z,124
2018-08-20T03:57:28.198Z,128
2018-08-20T03:58:08.756Z,136
2018-08-20T03:58:49.326Z,144
2018-08-20T03:59:29.890Z,152
2018-08-20T04:00:10.463Z,160
2018-08-20T04:00:51.019Z,168
2018-08-20T04:01:31.657Z,180
2018-08-20T04:02:12.170Z,188
2018-08-20T04:02:52.740Z,200
2018-08-20T04:03:33.298Z,208
2018-08-20T04:04:13.935Z,220
2018-08-20T04:04:54.530Z,232
2018-08-20T04:05:35.094Z,240
2018-08-20T04:06:15.658Z,252
2018-08-20T04:06:56.232Z,268
2018-08-20T04:07:36.790Z,280
2018-08-20T04:08:17.344Z,292
2018-08-20T04:08:57.945Z,308
2018-08-20T04:09:38.526Z,320
2018-08-20T04:10:19.151Z,336
2018-08-20T04:10:59.736Z,352
2018-08-20T04:11:40.320Z,368
2018-08-20T04:12:20.921Z,384
2018-08-20T04:13:01.498Z,400
2018-08-20T04:13:42.055Z,412
2018-08-20T04:14:22.671Z,432
2018-08-20T04:15:03.231Z,444
2018-08-20T04:15:43.794Z,468
2018-08-20T04:16:24.399Z,484
2018-08-20T04:17:04.960Z,504
2018-08-20T04:17:45.509Z,520
2018-08-20T04:18:26.068Z,536
2018-08-20T04:19:06.642Z,560
2018-08-20T04:19:47.195Z,580
2018-08-20T04:20:27.780Z,600
2018-08-20T04:21:08.508Z,624
2018-08-20T04:21:49.059Z,644
2018-08-20T04:22:29.682Z,668
2018-08-20T04:23:10.283Z,692
2018-08-20T04:23:50.839Z,712
2018-08-20T04:24:31.440Z,744
2018-08-20T04:25:12.048Z,768
2018-08-20T04:25:52.685Z,792
2018-08-20T04:26:33.240Z,816
2018-08-20T04:27:13.790Z,848
2018-08-20T04:27:54.348Z,872
2018-08-20T04:28:34.925Z,900
2018-08-20T04:29:15.486Z,928
2018-08-20T04:29:56.051Z,956
2018-08-20T04:30:36.673Z,984
2018-08-20T04:31:17.223Z,1012
2018-08-20T04:31:57.770Z,1036
2018-08-20T04:32:38.349Z,1064
2018-08-20T04:33:18.972Z,1092
2018-08-20T04:33:59.513Z,1124
2018-08-20T04:34:40.078Z,1148
2018-08-20T04:35:20.645Z,1180
2018-08-20T04:36:01.237Z,1204
2018-08-20T04:36:41.800Z,1236
2018-08-20T04:37:22.375Z,1264
2018-08-20T04:38:02.935Z,1292
2018-08-20T04:38:43.516Z,1324
2018-08-20T04:39:24.088Z,1352
2018-08-20T04:40:04.647Z,1380
2018-08-20T04:40:45.219Z,1416
2018-08-20T04:41:25.786Z,1444
2018-08-20T04:42:06.492Z,1480
2018-08-20T04:42:46.963Z,1508
2018-08-20T04:43:27.529Z,1544
2018-08-20T04:44:08.143Z,1576
2018-08-20T04:44:48.698Z,1612
2018-08-20T04:45:29.250Z,1644
2018-08-20T04:46:09.834Z,1676
2018-08-20T04:46:50.404Z,1712
2018-08-20T04:47:30.976Z,1748
2018-08-20T04:48:11.548Z,1788
2018-08-20T04:48:52.162Z,1824
2018-08-20T04:49:32.764Z,1864
2018-08-20T04:50:13.571Z,1908
2018-08-20T04:50:54.153Z,1948
2018-08-20T04:51:34.652Z,1992
2018-08-20T04:52:15.175Z,2028
2018-08-20T04:52:55.745Z,2072
2018-08-20T04:53:36.308Z,2116
2018-08-20T04:54:16.871Z,2164
2018-08-20T04:54:57.432Z,2208
2018-08-20T04:55:38.012Z,2260
2018-08-20T04:56:18.565Z,2316
2018-08-20T04:56:59.170Z,2368
2018-08-20T04:57:39.695Z,2420
2018-08-20T04:58:20.258Z,2472
2018-08-20T04:59:00.809Z,2524
2018-08-20T04:59:41.406Z,2572
2018-08-20T05:00:21.966Z,2624
2018-08-20T05:01:02.528Z,2676
2018-08-20T05:01:43.098Z,2724
2018-08-20T05:02:23.662Z,2772
2018-08-20T05:03:04.261Z,2816
2018-08-20T05:03:44.830Z,2864
2018-08-20T05:04:25.402Z,2900
2018-08-20T05:05:05.965Z,2940
2018-08-20T05:05:46.553Z,2976
2018-08-20T05:06:27.119Z,3012
2018-08-20T05:07:07.685Z,3044
2018-08-20T05:07:48.239Z,3064
2018-08-20T05:08:28.818Z,3088
2018-08-20T05:09:09.386Z,3108
2018-08-20T05:09:49.946Z,3132
2018-08-20T05:10:30.592Z,3152
2018-08-20T05:11:11.138Z,3176
2018-08-20T05:11:51.755Z,3188
2018-08-20T05:12:32.268Z,3204
2018-08-20T05:13:12.846Z,3224
2018-08-20T05:13:53.415Z,3256
2018-08-20T05:14:33.973Z,3296
2018-08-20T05:15:14.598Z,3336
2018-08-20T05:15:55.152Z,3388
2018-08-20T05:16:35.723Z,3432
2018-08-20T05:17:16.274Z,3480
2018-08-20T05:17:56.839Z,3532
2018-08-20T05:18:37.408Z,3592
2018-08-20T05:19:17.984Z,3660
2018-08-20T05:19:58.561Z,3740
2018-08-20T05:20:39.125Z,3820
2018-08-20T05:21:19.691Z,3892
2018-08-20T05:22:00.264Z,3952
2018-08-20T05:22:40.854Z,4008
2018-08-20T05:23:21.452Z,4080
2018-08-20T05:24:02.016Z,4160
2018-08-20T05:24:42.583Z,4216
2018-08-20T05:25:23.182Z,4280
2018-08-20T05:26:03.756Z,4356
2018-08-20T05:26:44.324Z,4436
2018-08-20T05:27:24.916Z,4544
2018-08-20T05:28:05.486Z,4680
2018-08-20T05:28:46.050Z,4856
2018-08-20T05:29:26.715Z,4948
2018-08-20T05:30:07.250Z,5000
2018-08-20T05:30:47.823Z,5108
2018-08-20T05:31:28.401Z,5264
2018-08-20T05:32:08.952Z,5372
2018-08-20T05:32:49.572Z,5584
2018-08-20T05:33:30.189Z,5796
2018-08-20T05:34:10.757Z,5948
2018-08-20T05:34:51.339Z,5892
2018-08-20T05:35:31.887Z,5680
2018-08-20T05:36:12.434Z,5732
2018-08-20T05:36:53.011Z,5880
2018-08-20T05:37:33.594Z,6024
2018-08-20T05:38:14.188Z,6520
2018-08-20T05:38:54.744Z,6980
2018-08-20T05:39:35.301Z,7084
2018-08-20T05:40:15.875Z,6960
2018-08-20T05:40:56.421Z,6880
2018-08-20T05:41:36.993Z,6744
2018-08-20T05:42:17.552Z,6920
2018-08-20T05:42:58.110Z,7096
2018-08-20T05:43:38.672Z,7652
2018-08-20T05:44:19.258Z,7628
2018-08-20T05:44:59.824Z,7680
2018-08-20T05:45:40.385Z,7464
2018-08-20T05:46:20.964Z,7268
2018-08-20T05:47:01.527Z,7724
2018-08-20T05:47:42.129Z,8412
2018-08-20T05:48:22.688Z,8408
2018-08-20T05:49:03.279Z,7696
2018-08-20T05:49:43.867Z,7892
2018-08-20T05:50:24.435Z,7752
2018-08-20T05:51:04.986Z,8164
2018-08-20T05:51:45.586Z,8828
2018-08-20T05:52:26.193Z,9100
2018-08-20T05:53:06.705Z,9184
2018-08-20T05:53:47.322Z,8824
2018-08-20T05:54:27.889Z,9016
2018-08-20T05:55:08.467Z,8724
2018-08-20T05:55:50.147Z,8756
2018-08-20T05:56:31.108Z,9960
2018-08-20T05:57:11.663Z,9796
2018-08-20T05:57:52.412Z,9124
2018-08-20T05:58:33.035Z,9624
2018-08-20T05:59:13.660Z,9544
2018-08-20T05:59:54.187Z,10072
2018-08-20T06:00:34.754Z,10240
2018-08-20T06:01:15.342Z,11236
2018-08-20T06:01:56.927Z,10744
2018-08-20T06:02:37.868Z,11332
2018-08-20T06:03:18.517Z,11668
2018-08-20T06:03:59.118Z,10924
2018-08-20T06:04:40.096Z,11300
2018-08-20T06:05:21.492Z,11532
2018-08-20T06:06:02.196Z,12124
2018-08-20T06:06:42.790Z,12248
2018-08-20T06:07:23.380Z,13780
2018-08-20T06:08:03.944Z,18336
2018-08-20T06:08:44.573Z,11884
2018-08-20T06:09:25.115Z,8104
2018-08-20T06:10:05.685Z,8924
2018-08-20T06:10:46.357Z,10644
2018-08-20T06:11:27.082Z,9164
2018-08-20T06:12:07.801Z,7988
2018-08-20T06:12:48.456Z,9220
2018-08-20T06:13:29.116Z,12796
2018-08-20T06:14:09.694Z,17312
2018-08-20T06:14:50.284Z,27872
2018-08-20T06:15:30.847Z,30848
2018-08-20T06:16:11.488Z,11700
2018-08-20T06:16:52.144Z,11724
2018-08-20T06:17:32.741Z,55776
2018-08-20T06:18:13.918Z,49728
2018-08-20T06:18:55.110Z,9752
2018-08-20T06:19:35.822Z,8872
2018-08-20T06:20:16.446Z,12884
2018-08-20T06:20:57.050Z,52352
2018-08-20T06:21:37.688Z,5748
2018-08-20T06:22:18.271Z,5796
2018-08-20T06:22:58.836Z,6400
2018-08-20T06:23:39.433Z,8684
2018-08-20T06:24:19.989Z,8132
2018-08-20T06:25:01.182Z,8252
2018-08-20T06:25:41.887Z,9528
2018-08-20T06:26:22.457Z,10228
2018-08-20T06:27:03.157Z,12448
2018-08-20T06:27:43.744Z,39808
2018-08-20T06:28:24.456Z,17408
2018-08-20T06:29:05.042Z,31520
2018-08-20T06:29:45.685Z,35488
2018-08-20T06:30:26.430Z,19360
2018-08-20T06:31:07.000Z,17696
2018-08-20T06:31:47.557Z,15780
2018-08-20T06:32:28.331Z,17472
2018-08-20T06:33:08.932Z,10892
2018-08-20T06:33:49.505Z,8908
2018-08-20T06:34:30.067Z,10372
2018-08-20T06:35:10.665Z,12948
2018-08-20T06:35:51.308Z,16392
2018-08-20T06:36:31.839Z,24416
2018-08-20T06:37:12.433Z,38592
2018-08-20T06:37:53.005Z,24384
2018-08-20T06:38:33.564Z,27712
2018-08-20T06:39:14.135Z,16480
2018-08-20T06:39:54.712Z,18336
2018-08-20T06:40:35.264Z,13616
2018-08-20T06:41:15.836Z,9592
2018-08-20T06:41:56.406Z,7772
2018-08-20T06:42:36.984Z,7420
2018-08-20T06:43:18.434Z,8108
2018-08-20T06:43:58.997Z,7732
2018-08-20T06:44:39.560Z,9064
2018-08-20T06:45:20.125Z,9520
2018-08-20T06:46:00.694Z,18144
2018-08-20T06:46:41.275Z,10332
2018-08-20T06:47:21.886Z,9832
2018-08-20T06:48:02.521Z,13204
2018-08-20T06:48:43.103Z,54624
2018-08-20T06:49:23.671Z,56224
2018-08-20T06:50:04.260Z,22912
2018-08-20T06:50:44.835Z,30688
2018-08-20T06:51:25.376Z,17696
2018-08-20T06:52:05.966Z,24192
2018-08-20T06:52:46.564Z,55776
2018-08-20T06:53:27.121Z,13984
2018-08-20T06:54:07.837Z,11220
2018-08-20T06:54:48.410Z,11964
2018-08-20T06:55:29.003Z,16600
2018-08-20T06:56:09.555Z,19200
2018-08-20T06:56:50.134Z,44096
2018-08-20T06:57:30.763Z,45152
2018-08-20T06:58:11.331Z,64032
2018-08-20T06:58:51.906Z,65952
2018-08-20T06:59:32.470Z,57888
2018-08-20T07:00:13.047Z,60960
2018-08-20T07:00:53.702Z,50592
2018-08-20T07:01:34.189Z,41024
2018-08-20T07:02:14.758Z,68192
2018-08-20T07:02:55.322Z,52352
2018-08-20T07:03:35.892Z,45600
2018-08-20T07:04:16.453Z,21920
2018-08-20T07:04:57.069Z,44832
2018-08-20T07:05:37.806Z,51040
2018-08-20T07:06:18.432Z,61248
2018-08-20T07:06:58.944Z,59456
2018-08-20T07:07:39.521Z,56544
2018-08-20T07:08:20.106Z,45664
2018-08-20T07:09:00.671Z,33088
2018-08-20T07:09:41.260Z,24672
2018-08-20T07:10:21.812Z,16640
2018-08-20T07:11:02.390Z,12360
2018-08-20T07:11:42.984Z,9460
2018-08-20T07:12:23.588Z,7924
2018-08-20T07:13:04.322Z,6680
2018-08-20T07:13:44.845Z,6116
2018-08-20T07:14:25.414Z,5416
2018-08-20T07:15:05.978Z,5312
2018-08-20T07:15:46.740Z,5116
2018-08-20T07:16:27.335Z,4504
2018-08-20T07:17:07.903Z,3952
2018-08-20T07:17:48.512Z,3484
2018-08-20T07:18:29.092Z,3064
2018-08-20T07:19:09.651Z,2792
2018-08-20T07:19:50.215Z,2560
2018-08-20T07:20:30.826Z,2392
2018-08-20T07:21:11.397Z,2256
2018-08-20T07:21:51.976Z,2116
2018-08-20T07:22:32.547Z,2020
2018-08-20T07:23:13.112Z,1980
2018-08-20T07:23:53.744Z,2024
2018-08-20T07:24:34.265Z,2068
2018-08-20T07:25:14.841Z,2160
2018-08-20T07:25:55.407Z,2332
2018-08-20T07:26:35.949Z,2564
2018-08-20T07:27:16.595Z,3000
2018-08-20T07:27:57.153Z,3444
2018-08-20T07:28:37.716Z,3892
2018-08-20T07:29:18.297Z,4212
2018-08-20T07:29:59.181Z,4696
2018-08-20T07:30:39.751Z,4992
2018-08-20T07:31:20.508Z,5160
2018-08-20T07:32:01.069Z,5108
2018-08-20T07:32:41.650Z,4924
2018-08-20T07:33:22.510Z,5408
2018-08-20T07:34:03.070Z,5816
2018-08-20T07:34:43.695Z,6240
2018-08-20T07:35:24.729Z,6124
2018-08-20T07:36:05.394Z,5648
2018-08-20T07:36:45.972Z,5728
2018-08-20T07:37:26.561Z,5884
2018-08-20T07:38:07.260Z,6092
2018-08-20T07:38:47.900Z,6244
2018-08-20T07:39:28.482Z,6600
2018-08-20T07:40:09.065Z,7356
2018-08-20T07:40:49.651Z,8496
2018-08-20T07:41:30.205Z,7612
2018-08-20T07:42:10.786Z,6916
2018-08-20T07:42:51.373Z,6812
2018-08-20T07:43:31.938Z,7176
2018-08-20T07:44:12.547Z,7012
2018-08-20T07:44:53.123Z,6476
2018-08-20T07:45:33.699Z,6284
2018-08-20T07:46:14.276Z,5880
2018-08-20T07:46:54.836Z,5528
2018-08-20T07:47:35.491Z,5164
2018-08-20T07:48:16.068Z,5132
2018-08-20T07:48:56.710Z,5248
2018-08-20T07:49:37.276Z,5396
2018-08-20T07:50:17.832Z,5564
2018-08-20T07:50:58.471Z,5704
2018-08-20T07:51:39.045Z,5844
2018-08-20T07:52:19.646Z,6056
2018-08-20T07:53:00.213Z,6100
2018-08-20T07:53:40.839Z,6116
2018-08-20T07:54:21.418Z,6024
2018-08-20T07:55:01.960Z,6228
2018-08-20T07:55:42.619Z,6496
2018-08-20T07:56:23.123Z,6400
2018-08-20T07:57:03.689Z,8784
2018-08-20T07:57:44.268Z,7700
2018-08-20T07:58:24.830Z,6220
2018-08-20T07:59:05.387Z,5844
2018-08-20T07:59:45.978Z,5568
2018-08-20T08:00:26.557Z,5460
2018-08-20T08:01:07.136Z,5640
2018-08-20T08:01:47.728Z,5340
2018-08-20T08:02:28.310Z,5136
2018-08-20T08:03:08.860Z,5064
2018-08-20T08:03:49.418Z,5044
2018-08-20T08:04:30.076Z,4984
2018-08-20T08:05:10.677Z,4956
2018-08-20T08:05:51.254Z,5112
2018-08-20T08:06:31.808Z,5144
2018-08-20T08:07:12.379Z,6612
2018-08-20T08:07:53.062Z,5076
2018-08-20T08:08:33.605Z,4800
2018-08-20T08:09:14.116Z,4524
2018-08-20T08:09:54.696Z,4256
2018-08-20T08:10:35.296Z,4096
2018-08-20T08:11:15.883Z,3984
2018-08-20T08:11:56.439Z,3964
2018-08-20T08:12:37.023Z,3936
2018-08-20T08:13:17.588Z,3984
2018-08-20T08:13:58.160Z,3888
2018-08-20T08:14:38.724Z,3848
2018-08-20T08:15:19.275Z,3852
2018-08-20T08:15:59.837Z,3832
2018-08-20T08:16:40.414Z,3756
2018-08-20T08:17:21.072Z,3648
2018-08-20T08:18:01.675Z,3540
2018-08-20T08:18:42.225Z,3500
2018-08-20T08:19:22.797Z,3472
2018-08-20T08:20:03.350Z,3416
2018-08-20T08:20:43.951Z,3376
2018-08-20T08:21:24.515Z,3364
2018-08-20T08:22:05.600Z,3364
2018-08-20T08:22:46.274Z,3408
2018-08-20T08:23:26.911Z,3432
2018-08-20T08:24:07.474Z,3408
2018-08-20T08:24:48.050Z,3424
2018-08-20T08:25:28.656Z,3428
2018-08-20T08:26:09.222Z,3456
2018-08-20T08:26:49.780Z,3516
2018-08-20T08:27:30.366Z,3620
2018-08-20T08:28:10.965Z,3716
2018-08-20T08:28:51.547Z,3796
2018-08-20T08:29:32.114Z,3912
2018-08-20T08:30:12.683Z,3936
2018-08-20T08:30:53.256Z,3972
2018-08-20T08:31:33.823Z,3948
2018-08-20T08:32:14.425Z,3928
2018-08-20T08:32:55.004Z,3832
2018-08-20T08:33:35.584Z,3720
2018-08-20T08:34:16.158Z,3656
2018-08-20T08:34:56.721Z,3636
2018-08-20T08:35:37.276Z,3672
2018-08-20T08:36:17.872Z,3644
2018-08-20T08:36:58.463Z,3760
2018-08-20T08:37:39.045Z,3752
2018-08-20T08:38:19.615Z,3664
2018-08-20T08:39:00.172Z,3712
2018-08-20T08:39:40.740Z,3728
2018-08-20T08:40:21.310Z,3660
2018-08-20T08:41:01.896Z,3580
2018-08-20T08:41:42.470Z,3468
2018-08-20T08:42:23.038Z,3396
2018-08-20T08:43:03.620Z,3388
2018-08-20T08:43:44.170Z,3400
2018-08-20T08:44:24.725Z,3360
2018-08-20T08:45:05.284Z,3240
2018-08-20T08:45:45.885Z,3160
2018-08-20T08:46:26.535Z,3132
2018-08-20T08:47:07.094Z,3192
2018-08-20T08:47:47.660Z,3220
2018-08-20T08:48:28.222Z,3212
2018-08-20T08:49:08.794Z,3140
2018-08-20T08:49:49.497Z,3124
2018-08-20T08:50:29.967Z,3040
2018-08-20T08:51:10.530Z,3040
2018-08-20T08:51:51.192Z,3080
2018-08-20T08:52:31.778Z,3080
2018-08-20T08:53:12.346Z,3168
2018-08-20T08:53:52.924Z,3296
2018-08-20T08:54:33.478Z,3376
2018-08-20T08:55:14.038Z,3476
2018-08-20T08:55:54.610Z,3544
2018-08-20T08:56:35.169Z,3624
2018-08-20T08:57:15.731Z,3760
2018-08-20T08:57:56.302Z,3776
2018-08-20T08:58:36.874Z,3736
2018-08-20T08:59:17.447Z,3804
2018-08-20T08:59:58.040Z,3784
2018-08-20T09:00:38.626Z,3784
2018-08-20T09:01:19.217Z,3800
2018-08-20T09:01:59.796Z,3852
2018-08-20T09:02:40.388Z,3872
2018-08-20T09:03:20.967Z,3876
2018-08-20T09:04:01.547Z,3888
2018-08-20T09:04:42.121Z,3916
2018-08-20T09:05:22.872Z,4000
2018-08-20T09:06:03.441Z,4092
2018-08-20T09:06:44.013Z,4204
2018-08-20T09:07:24.575Z,4396
2018-08-20T09:08:05.130Z,4536
2018-08-20T09:08:45.693Z,4676
2018-08-20T09:09:26.273Z,4908
2018-08-20T09:10:06.838Z,5088
2018-08-20T09:10:47.405Z,5192
2018-08-20T09:11:27.972Z,5380
2018-08-20T09:12:08.658Z,5388
2018-08-20T09:12:49.216Z,5356
2018-08-20T09:13:29.783Z,5368
2018-08-20T09:14:10.347Z,5384
2018-08-20T09:14:50.932Z,5372
2018-08-20T09:15:31.506Z,5416
2018-08-20T09:16:12.148Z,5580
2018-08-20T09:16:52.668Z,5712
2018-08-20T09:17:33.229Z,5804
2018-08-20T09:18:13.829Z,5864
2018-08-20T09:18:54.400Z,5812
2018-08-20T09:19:35.002Z,5796
2018-08-20T09:20:15.567Z,5748
2018-08-20T09:20:56.142Z,5788
2018-08-20T09:21:36.718Z,5776
2018-08-20T09:22:17.292Z,5780